Στοιχεία αεροπορικών μετεωρολογικών δεδομένων METAR     EFOU Oulu Airport
θερμοκρασία
20°C θερμοκρασία
16°C Σημείο δρόσου
78% Υγρασία



Ανεμος
1 M/S
2 MPH
3 KM/H
2 KTS



Ηρεμία
V
Τρέχουσες συνθήκες

Σαφή Σαφή
πίεση 1019.92 (hPa) - 30.12 (inHg)
Ορατότητα 6.2 (μίλι) - 10 (km)
Aεροδρόμιο
Κωδικός αεροδρομίου EFOU

Τοποθεσία: Oulu Airport
Απόσταση: 83 (km)

Metar:
EFOU 302220Z AUTO VRB02KT CAVOK 20/16 Q1020

ώρα: 01-07-2022 01:20 EEST